Tiempo atmosférico en la estación meteorológica de Labastida, Araba/Álava (610 m.)



Fecha
DESCASC
Temp. máxima en grados centígrados (hora)
DESCASC
Temp. mínima en grados centígrados (hora)
DESCASC
Temp. media en grados centígrados
DESCASC
Racha de viento máxima en m/sg (hora)
DESCASC
Velocidad máxima media en intervalos de 10 minutos(hora)
DESCASC
Precipitaciones diarias en mm
DESCASC
Precipitaciones de 00:00 a 06:00 en mm
DESCASC
Precipitaciones de 06:00 a 12:00 en mm
DESCASC
Precipitaciones de 12:00 a 18:00 en mm
DESCASC
Precipitaciones de 18:00 a 24:00 en mm
DESCASC
01-08-2019 25.7 (17:00) 14.6 (00:00) 20.2 11.39 (20:00) 5.28 (19:50) 38.4 13.2 25.2 0 0
11-08-2019 24.6 (16:10) 14.1 (00:00) 19.4 13.89 (19:00) 6.39 (18:50) 4.6 1.4 2.8 0 0.4
26-07-2019 22.2 (14:00) 16 (00:00) 19.1 13.61 (16:30) 6.39 (17:20) 2 1.8 0.2 0 0
27-07-2019 17.9 (17:00) 13.7 (00:00) 15.8 8.61 (21:20) 4.17 (18:00) 1.6 0 0.2 1.4 0
09-08-2019 29.8 (17:30) 17.3 (00:00) 23.5 8.89 (19:40) 3.33 (19:30) 1.4 0 0 0 1.4
07-08-2019 29.2 (15:10) 16.3 (00:00) 22.8 11.67 (00:10) 4.17 (00:30) 1.2 0.8 0 0 0.4
10-08-2019 27.1 (15:50) 14.5 (00:00) 20.8 12.5 (21:20) 6.11 (20:30) 0.2 0 0.2 0 0
08-08-2019 32.5 (19:40) 19.1 (00:00) 25.8 7.22 (14:00) 2.78 (13:00) 0.2 0.2 0 0 0
14-08-2019 30.2 (17:00) 10.6 (00:00) 20.4 11.94 (21:00) 6.11 (19:40) 0 0 0 0 0
24-08-2019 33.2 (17:10) 15.5 (00:00) 24.4 7.22 (17:30) 4.17 (15:50) 0 0 0 0 0
23-08-2019 32 (18:40) 10.3 (00:00) 21.2 6.67 (16:10) 3.89 (15:00) 0 0 0 0 0
22-08-2019 28.8 (16:10) 10.5 (00:00) 19.6 8.89 (00:30) 4.72 (00:30) 0 0 0 0 0
21-08-2019 27.1 (17:40) 11.5 (00:00) 19.3 11.11 (22:20) 6.11 (22:20) 0 0 0 0 0
20-08-2019 22.1 (16:10) 14.1 (00:00) 18.1 11.39 (02:50) 5.28 (21:20) 0 0 0 0 0
19-08-2019 20.1 (13:20) 14.6 (00:00) 17.4 11.67 (21:50) 5.56 (22:30) 0 0 0 0 0
18-08-2019 31.2 (16:00) 15.6 (00:00) 23.4 17.22 (18:20) 8.89 (18:20) 0 0 0 0 0
17-08-2019 34.6 (18:30) 13.3 (00:00) 23.9 7.22 (00:30) 3.06 (00:10) 0 0 0 0 0
16-08-2019 32.5 (17:30) 11 (00:00) 21.8 7.5 (23:59) 3.89 (14:30) 0 0 0 0 0
15-08-2019 24.9 (16:20) 15.2 (00:00) 20 10.56 (19:10) 5 (19:10) 0 0 0 0 0
03-08-2019 33.2 (18:20) 13.7 (00:00) 23.5 8.89 (21:00) 4.17 (19:10) 0 0 0 0 0
13-08-2019 23.2 (16:50) 10.1 (00:00) 16.7 9.72 (11:10) 4.17 (19:00) 0 0 0 0 0
12-08-2019 21.4 (16:50) 11 (00:00) 16.2 11.94 (19:00) 5.83 (19:50) 0 0 0 0 0
28-07-2019 25.8 (18:30) 10.8 (00:00) 18.3 8.33 (16:10) 3.33 (00:20) 0 0 0 0 0
29-07-2019 30.8 (16:40) 12.2 (00:00) 21.5 16.39 (20:00) 9.17 (20:20) 0 0 0 0 0
30-07-2019 23 (16:30) 14.1 (00:00) 18.6 12.22 (20:10) 5.83 (20:50) 0 0 0 0 0
31-07-2019 26.6 (17:30) 9.3 (00:00) 18 10 (00:40) 4.44 (00:10) 0 0 0 0 0
02-08-2019 29 (16:50) 14.5 (00:00) 21.8 7.5 (17:20) 3.61 (20:50) 0 0 0 0 0
06-08-2019 30.9 (17:10) 14.6 (00:00) 22.8 16.39 (21:20) 7.22 (22:20) 0 0 0 0 0
05-08-2019 31.1 (16:30) 14.4 (00:00) 22.8 9.44 (21:00) 4.44 (21:00) 0 0 0 0 0
04-08-2019 30.6 (16:10) 16.1 (00:00) 23.4 10.56 (21:30) 4.44 (21:50) 0 0 0 0 0

Gráficas

Temp. máximas Temp. mínimas Temp. medias Precipitaciones Rachas de viento máximas Velocidades máximas media en intervalos de 10 minutos

Datos horarios

Fecha y hora oficial Temperatura (ºC) Velocidad del viento (km/h) Dirección del viento Racha (km/h) Dirección de racha Precipitación (mm) Presión (hPa) Tendencia (hPa) Humedad (%)
2019-08-24 23:00:00 26.2 4 Este 13 Este 0 -- -- 31
2019-08-24 22:00:00 27.2 6 Nordeste 19 Nordeste 0 -- -- 32
2019-08-24 21:00:00 27.6 6 Nordeste 15 Este 0 -- -- 32
2019-08-24 20:00:00 30.7 6 Sudeste 18 Sudeste 0 -- -- 27
2019-08-24 19:00:00 32.1 11 Sudeste 22 Sudeste 0 -- -- 27
2019-08-24 18:00:00 33 12 Sudeste 26 Sur 0 -- -- 28
2019-08-24 17:00:00 33.1 12 Sur 26 Sudeste 0 -- -- 29
2019-08-24 16:00:00 32.4 13 Sur 24 Sudeste 0 -- -- 30
2019-08-24 15:00:00 31.4 12 Sur 26 Sur 0 -- -- 34
2019-08-24 14:00:00 29.5 14 Sur 24 Sur 0 -- -- 39
2019-08-24 13:00:00 27.9 11 Sur 20 Sudeste 0 -- -- 44
2019-08-24 12:00:00 24.7 8 Sur 11 Sur 0 -- -- 51
2019-08-24 11:00:00 22.7 4 Sur 10 Oeste 0 -- -- 52
2019-08-24 10:00:00 20.4 5 Oeste 9 Sudoeste 0 -- -- 55
2019-08-24 09:00:00 18.6 0 Calma 6 Norte 0 -- -- 62
2019-08-24 08:00:00 15.8 2 Nordeste 6 Nordeste 0 -- -- 70
2019-08-24 07:00:00 16.1 3 Nordeste 7 Norte 0 -- -- 66
2019-08-24 06:00:00 16.2 4 Norte 6 Norte 0 -- -- 64
2019-08-24 05:00:00 16.7 4 Nordeste 7 Nordeste 0 -- -- 62
2019-08-24 04:00:00 17.5 2 Nordeste 5 Nordeste 0 -- -- 59
2019-08-24 03:00:00 18.5 3 Norte 6 Norte 0 -- -- 57
2019-08-24 02:00:00 19.9 4 Nordeste 9 Nordeste 0 -- -- 53
2019-08-24 01:00:00 20.9 2 Norte 13 Nordeste 0 -- -- 52
2019-08-24 00:00:00 25.3 5 Nordeste 16 Nordeste 0 -- -- 39
2019-08-23 23:00:00 25.1 4 Este 15 Nordeste 0 -- -- 40
2019-08-23 22:00:00 25.1 6 Nordeste 18 Norte 0 -- -- 41
2019-08-23 21:00:00 25.7 3 Nordeste 14 Sudeste 0 -- -- 37
2019-08-23 20:00:00 30 6 Sudeste 17 Sur 0 -- -- 30
2019-08-23 19:00:00 31.5 9 Sudeste 19 Sur 0 -- -- 28
2019-08-23 18:00:00 31.8 10 Sur 22 Sudeste 0 -- -- 28
2019-08-23 17:00:00 31.7 11 Sudeste 24 Sur 0 -- -- 28
2019-08-23 16:00:00 30.7 13 Sur 22 Sur 0 -- -- 30
2019-08-23 15:00:00 30.1 14 Sur 22 Sur 0 -- -- 34
2019-08-23 14:00:00 27.9 12 Sur 24 Sur 0 -- -- 38
2019-08-23 13:00:00 24.3 6 Sur 14 Sur 0 -- -- 46
2019-08-23 12:00:00 21.1 4 Sur 10 Oeste 0 -- -- 52
2019-08-23 11:00:00 19.1 3 Sur 11 Sur 0 -- -- 58
2019-08-23 10:00:00 16.2 4 Sur 6 Sudoeste 0 -- -- 67
2019-08-23 09:00:00 15.1 0 Calma 4 Sudoeste 0 -- -- 69
2019-08-23 08:00:00 10.5 0 Calma 5 Nordeste 0 -- -- 84
2019-08-23 07:00:00 11.3 2 Este 4 Este 0 -- -- 79
2019-08-23 06:00:00 11.7 0 Calma 9 Oeste 0 -- -- 77
2019-08-23 05:00:00 12.3 0 Calma 7 Norte 0 -- -- 75
2019-08-23 04:00:00 12.8 2 Norte 6 Nordeste 0 -- -- 72
2019-08-23 03:00:00 13.4 2 Norte 6 Nordeste 0 -- -- 69
2019-08-23 02:00:00 14.8 2 Nordeste 6 Norte 0 -- -- 63
2019-08-23 01:00:00 15.8 4 Norte 9 Norte 0 -- -- 57
2019-08-23 00:00:00 16.7 2 Nordeste 9 Norte 0 -- -- 52
2019-08-22 23:00:00 17.4 3 Nordeste 8 Norte 0 -- -- 51
2019-08-22 22:00:00 21 4 Oeste 24 Norte 0 -- -- 40
2019-08-22 21:00:00 22.5 9 Nordeste 21 Nordeste 0 -- -- 37
2019-08-22 20:00:00 24.3 10 Nordeste 26 Nordeste 0 -- -- 36
2019-08-22 19:00:00 26.5 13 Nordeste 26 Nordeste 0 -- -- 29
2019-08-22 18:00:00 27.9 9 Nordeste 22 Norte 0 -- -- 26
2019-08-22 17:00:00 28.4 9 Este 22 Este 0 -- -- 26
2019-08-22 16:00:00 28.4 9 Nordeste 24 Nordeste 0 -- -- 28
2019-08-22 15:00:00 27.4 8 Nordeste 21 Sur 0 -- -- 31
2019-08-22 14:00:00 26.3 8 Nordeste 22 Sur 0 -- -- 34
2019-08-22 13:00:00 24 8 Este 21 Este 0 -- -- 39
2019-08-22 12:00:00 21.9 7 Oeste 15 Sur 0 -- -- 49
2019-08-22 11:00:00 19.5 6 Oeste 13 Sur 0 -- -- 59
2019-08-22 10:00:00 16.4 4 Sur 10 Sudeste 0 -- -- 73
2019-08-22 09:00:00 14.9 4 Norte 13 Noroeste 0 -- -- 78
2019-08-22 08:00:00 11.7 7 Noroeste 11 Noroeste 0 -- -- 88
2019-08-22 07:00:00 10.9 4 Noroeste 10 Oeste 0 -- -- 89
2019-08-22 06:00:00 11.7 2 Nordeste 9 Norte 0 -- -- 82
2019-08-22 05:00:00 11.5 4 Norte 9 Norte 0 -- -- 83
2019-08-22 04:00:00 12.2 2 Nordeste 6 Nordeste 0 -- -- 78
2019-08-22 03:00:00 12.7 2 Nordeste 8 Norte 0 -- -- 76
2019-08-22 02:00:00 14.6 5 Norte 15 Sudoeste 0 -- -- 72
2019-08-22 01:00:00 17.5 5 Noroeste 32 Nordeste 0 -- -- 62
2019-08-22 00:00:00 17.3 7 Sur 38 Norte 0 -- -- 68
2019-08-21 23:00:00 17.8 19 Nordeste 40 Nordeste 0 -- -- 72
2019-08-21 22:00:00 18.6 17 Nordeste 33 Norte 0 -- -- 71
2019-08-21 21:00:00 20.1 14 Nordeste 35 Nordeste 0 -- -- 68
2019-08-21 20:00:00 22.7 13 Nordeste 31 Nordeste 0 -- -- 60
2019-08-21 19:00:00 24.9 15 Norte 30 Norte 0 -- -- 50
2019-08-21 18:00:00 26.4 9 Norte 26 Norte 0 -- -- 44
2019-08-21 17:00:00 26.7 7 Noroeste 27 Noroeste 0 -- -- 42
2019-08-21 16:00:00 26 6 Oeste 18 Sur 0 -- -- 48
2019-08-21 15:00:00 24.3 5 Sudoeste 17 Sur 0 -- -- 52
2019-08-21 14:00:00 21.8 6 Sur 14 Oeste 0 -- -- 59
2019-08-21 13:00:00 20.4 6 Sudoeste 14 Sur 0 -- -- 64
2019-08-21 12:00:00 18.4 5 Sur 11 Sur 0 -- -- 69
2019-08-21 11:00:00 16.9 5 Sur 9 Sur 0 -- -- 73
2019-08-21 10:00:00 14.5 2 Sur 7 Sur 0 -- -- 82
2019-08-21 09:00:00 13.3 3 Sur 4 Sudoeste 0 -- -- 86
2019-08-21 08:00:00 11.8 0 Calma 4 Nordeste 0 -- -- 89
2019-08-21 07:00:00 11.8 0 Calma 6 Norte 0 -- -- 88
2019-08-21 06:00:00 12.8 6 Norte 7 Noroeste 0 -- -- 85
2019-08-21 05:00:00 13.6 3 Norte 7 Noroeste 0 -- -- 81
2019-08-21 04:00:00 13.9 3 Norte 18 Nordeste 0 -- -- 79
2019-08-21 03:00:00 14.9 6 Nordeste 20 Nordeste 0 -- -- 75
2019-08-21 02:00:00 15.3 9 Nordeste 25 Nordeste 0 -- -- 74
2019-08-21 01:00:00 15.5 8 Nordeste 22 Este 0 -- -- 73
2019-08-21 00:00:00 15.5 8 Nordeste 28 Nordeste 0 -- -- 73
2019-08-20 23:00:00 15.8 9 Nordeste 32 Nordeste 0 -- -- 71
2019-08-20 22:00:00 16.1 16 Nordeste 38 Nordeste 0 -- -- 71
2019-08-20 21:00:00 17 17 Nordeste 34 Nordeste 0 -- -- 66
2019-08-20 20:00:00 18.9 13 Nordeste 34 Nordeste 0 -- -- 58
2019-08-20 19:00:00 20.1 18 Nordeste 33 Norte 0 -- -- 57
2019-08-20 18:00:00 21.6 14 Norte 32 Este 0 -- -- 52
2019-08-20 17:00:00 20.6 12 Nordeste 27 Este 0 -- -- 53
2019-08-20 16:00:00 21.7 12 Norte 27 Nordeste 0 -- -- 52
2019-08-20 15:00:00 20.6 6 Noroeste 27 Noroeste 0 -- -- 54
2019-08-20 14:00:00 18.6 7 Este 30 Nordeste 0 -- -- 59
2019-08-20 13:00:00 18.5 9 Norte 32 Norte 0 -- -- 60
2019-08-20 12:00:00 17.1 10 Norte 28 Nordeste 0 -- -- 62
2019-08-20 11:00:00 16 11 Nordeste 35 Nordeste 0 -- -- 69
2019-08-20 10:00:00 15.4 8 Nordeste 32 Norte 0 -- -- 76
2019-08-20 09:00:00 14.1 9 Sudoeste 26 Norte 0 -- -- 87
2019-08-20 08:00:00 14.6 14 Norte 38 Norte 0 -- -- 81
2019-08-20 07:00:00 14.7 16 Norte 35 Norte 0 -- -- 83
2019-08-20 06:00:00 14.9 15 Nordeste 39 Nordeste 0 -- -- 80
2019-08-20 05:00:00 14.6 17 Nordeste 35 Nordeste 0 -- -- 83
2019-08-20 04:00:00 14.6 15 Nordeste 36 Norte 0 -- -- 83
2019-08-20 03:00:00 15.1 14 Nordeste 41 Norte 0 -- -- 80
2019-08-20 02:00:00 15.3 13 Nordeste 33 Norte 0 -- -- 80
2019-08-20 01:00:00 15.4 10 Norte 29 Norte 0 -- -- 79
2019-08-20 00:00:00 15.4 12 Nordeste 30 Nordeste 0 -- -- 80
2019-08-19 23:00:00 15.4 17 Nordeste 40 Nordeste 0 -- -- 80
2019-08-19 22:00:00 15.8 18 Nordeste 42 Norte 0 -- -- 77
2019-08-19 21:00:00 15.9 17 Nordeste 36 Norte 0 -- -- 77
2019-08-19 20:00:00 16.9 16 Nordeste 33 Norte 0 -- -- 72
2019-08-19 19:00:00 18.1 12 Nordeste 27 Norte 0 -- -- 66
2019-08-19 18:00:00 19.2 13 Nordeste 27 Norte 0 -- -- 62
2019-08-19 17:00:00 19.2 13 Nordeste 28 Norte 0 -- -- 64
2019-08-19 16:00:00 19.3 13 Nordeste 28 Nordeste 0 -- -- 63
2019-08-19 15:00:00 18.8 10 Nordeste 24 Nordeste 0 -- -- 65
2019-08-19 14:00:00 19 11 Nordeste 24 Nordeste 0 -- -- 62
2019-08-19 13:00:00 18.8 11 Nordeste 25 Norte 0 -- -- 64
2019-08-19 12:00:00 18 9 Nordeste 25 Nordeste 0 -- -- 65
2019-08-19 11:00:00 17.1 8 Oeste 29 Nordeste 0 -- -- 68
2019-08-19 10:00:00 15.7 11 Nordeste 25 Nordeste 0 -- -- 74
2019-08-19 09:00:00 15.5 9 Este 27 Nordeste 0 -- -- 74
2019-08-19 08:00:00 15 7 Oeste 22 Nordeste 0 -- -- 78
2019-08-19 07:00:00 14.8 5 Este 28 Nordeste 0 -- -- 78
2019-08-19 06:00:00 15 13 Nordeste 33 Nordeste 0 -- -- 76
2019-08-19 05:00:00 14.7 12 Nordeste 36 Norte 0 -- -- 80
2019-08-19 04:00:00 14.7 13 Nordeste 37 Norte 0 -- -- 80
2019-08-19 03:00:00 14.9 16 Nordeste 33 Nordeste 0 -- -- 80
2019-08-19 02:00:00 15 14 Nordeste 40 Nordeste 0 -- -- 80
2019-08-19 01:00:00 15.2 16 Nordeste 39 Nordeste 0 -- -- 78
2019-08-19 00:00:00 15.8 16 Nordeste 40 Norte 0 -- -- 77
2019-08-18 23:00:00 16.4 16 Nordeste 39 Norte 0 -- -- 79
2019-08-18 22:00:00 17.4 21 Nordeste 50 Nordeste 0 -- -- 76
2019-08-18 21:00:00 17.8 19 Nordeste 52 Nordeste 0 -- -- 74
2019-08-18 20:00:00 19.4 25 Nordeste 56 Nordeste 0 -- -- 70
2019-08-18 19:00:00 20.9 28 Nordeste 62 Norte 0 -- -- 68
2019-08-18 18:00:00 22.6 27 Nordeste 59 Norte 0 -- -- 66
2019-08-18 17:00:00 26.9 22 Nordeste 42 Norte 0 -- -- 53
2019-08-18 16:00:00 31.2 9 Nordeste 23 Este 0 -- -- 39
2019-08-18 15:00:00 30 7 Sudeste 26 Sudeste 0 -- -- 40
2019-08-18 14:00:00 28.8 8 Sudoeste 18 Norte 0 -- -- 38
2019-08-18 13:00:00 28.2 9 Norte 20 Noroeste 0 -- -- 38
2019-08-18 12:00:00 26.2 6 Sudoeste 12 Sudoeste 0 -- -- 53
2019-08-18 11:00:00 23.8 4 Oeste 13 Oeste 0 -- -- 59
2019-08-18 10:00:00 21.7 6 Sudoeste 15 Oeste 0 -- -- 61
2019-08-18 09:00:00 19.5 4 Oeste 14 Oeste 0 -- -- 68
2019-08-18 08:00:00 16.6 2 Norte 6 Norte 0 -- -- 82
2019-08-18 07:00:00 17 2 Norte 10 Noroeste 0 -- -- 78
2019-08-18 06:00:00 17.6 0 Calma 5 Norte 0 -- -- 75
2019-08-18 05:00:00 17.8 0 Calma 8 Nordeste 0 -- -- 68
2019-08-18 04:00:00 18.5 3 Nordeste 8 Oeste 0 -- -- 66
2019-08-18 03:00:00 19.6 2 Norte 6 Norte 0 -- -- 62
2019-08-18 02:00:00 20 2 Norte 8 Norte 0 -- -- 62
2019-08-18 01:00:00 19.4 2 Nordeste 4 Norte 0 -- -- 62
2019-08-18 00:00:00 22.4 2 Nordeste 8 Oeste 0 -- -- 50
2019-08-17 23:00:00 24.6 2 Norte 9 Norte 0 -- -- 43
2019-08-17 22:00:00 25.7 3 Norte 8 Norte 0 -- -- 41
2019-08-17 21:00:00 27.4 3 Nordeste 10 Este 0 -- -- 38
2019-08-17 20:00:00 33.1 3 Nordeste 17 Este 0 -- -- 27
2019-08-17 19:00:00 33.7 9 Sudeste 22 Sur 0 -- -- 28
2019-08-17 18:00:00 34.4 6 Sur 19 Sudoeste 0 -- -- 22
2019-08-17 17:00:00 34 7 Sudoeste 19 Oeste 0 -- -- 23
2019-08-17 16:00:00 33.1 7 Sur 15 Sudoeste 0 -- -- 25
2019-08-17 15:00:00 31.4 7 Sudoeste 15 Sudoeste 0 -- -- 27
2019-08-17 14:00:00 29.9 4 Sur 14 Oeste 0 -- -- 32
2019-08-17 13:00:00 27.3 5 Sur 12 Sudoeste 0 -- -- 37
2019-08-17 12:00:00 24.9 4 Sudoeste 13 Oeste 0 -- -- 42
2019-08-17 11:00:00 22.6 6 Oeste 14 Oeste 0 -- -- 46
2019-08-17 10:00:00 20.1 3 Sur 9 Oeste 0 -- -- 53
2019-08-17 09:00:00 19.1 0 Calma 5 Este 0 -- -- 55
2019-08-17 08:00:00 14.3 0 Calma 5 Nordeste 0 -- -- 67
2019-08-17 07:00:00 13.5 0 Calma 5 Noroeste 0 -- -- 70
2019-08-17 06:00:00 14.1 0 Calma 8 Sudeste 0 -- -- 67
2019-08-17 05:00:00 16 2 Nordeste 6 Nordeste 0 -- -- 57
2019-08-17 04:00:00 16.3 4 Norte 9 Norte 0 -- -- 56
2019-08-17 03:00:00 17.7 4 Norte 7 Norte 0 -- -- 53
2019-08-17 02:00:00 20.2 4 Norte 19 Norte 0 -- -- 44
2019-08-17 01:00:00 21.6 7 Oeste 26 Nordeste 0 -- -- 44
2019-08-17 00:00:00 22.9 10 Nordeste 27 Norte 0 -- -- 35
2019-08-16 23:00:00 22.7 3 Noroeste 16 Este 0 -- -- 52
2019-08-16 22:00:00 24.9 6 Nordeste 27 Nordeste 0 -- -- 46
2019-08-16 21:00:00 25.7 11 Nordeste 26 Nordeste 0 -- -- 45
2019-08-16 20:00:00 29.2 9 Nordeste 24 Nordeste 0 -- -- 40
2019-08-16 19:00:00 31.4 9 Nordeste 21 Sur 0 -- -- 37
2019-08-16 18:00:00 32 13 Sur 22 Sur 0 -- -- 32
2019-08-16 17:00:00 32.3 10 Sudeste 26 Sudeste 0 -- -- 30
2019-08-16 16:00:00 31.1 11 Sur 23 Sur 0 -- -- 32
2019-08-16 15:00:00 29.6 11 Sur 22 Sur 0 -- -- 38
2019-08-16 14:00:00 27.9 13 Sur 23 Sur 0 -- -- 40
2019-08-16 13:00:00 25.9 8 Sur 19 Sur 0 -- -- 45
2019-08-16 12:00:00 22.5 9 Sur 13 Sur 0 -- -- 55
2019-08-16 11:00:00 20.5 6 Sur 11 Sudoeste 0 -- -- 59
2019-08-16 10:00:00 18.3 4 Sur 6 Sur 0 -- -- 69
2019-08-16 09:00:00 16.9 0 Calma 8 Nordeste 0 -- -- 67
2019-08-16 08:00:00 12 4 Norte 8 Norte 0 -- -- 81
2019-08-16 07:00:00 11.3 0 Calma 5 Nordeste 0 -- -- 77
2019-08-16 06:00:00 12.3 2 Nordeste 5 Norte 0 -- -- 72
2019-08-16 05:00:00 12.2 2 Nordeste 9 Nordeste 0 -- -- 78
2019-08-16 04:00:00 13.1 3 Nordeste 6 Norte 0 -- -- 67
2019-08-16 03:00:00 13.4 2 Nordeste 7 Nordeste 0 -- -- 67
2019-08-16 02:00:00 13.5 2 Nordeste 7 Norte 0 -- -- 68
2019-08-16 01:00:00 14.4 3 Nordeste 9 Nordeste 0 -- -- 72
2019-08-16 00:00:00 15.2 2 Norte 18 Sudoeste 0 -- -- 72
2019-08-15 23:00:00 17.8 6 Oeste 22 Norte 0 -- -- 58
2019-08-15 22:00:00 18.5 9 Nordeste 23 Nordeste 0 -- -- 61
2019-08-15 21:00:00 19.2 10 Norte 27 Norte 0 -- -- 62
2019-08-15 20:00:00 21 12 Nordeste 38 Nordeste 0 -- -- 58
2019-08-15 19:00:00 22.4 16 Nordeste 31 Nordeste 0 -- -- 55
2019-08-15 18:00:00 23.6 12 Nordeste 34 Norte 0 -- -- 52
2019-08-15 17:00:00 24.9 9 Nordeste 30 Norte 0 -- -- 47
2019-08-15 16:00:00 24.6 12 Nordeste 28 Nordeste 0 -- -- 47
2019-08-15 15:00:00 23.6 9 Este 29 Nordeste 0 -- -- 49
2019-08-15 14:00:00 23.5 13 Nordeste 27 Norte 0 -- -- 54
2019-08-15 13:00:00 22 8 Oeste 24 Nordeste 0 -- -- 56
2019-08-15 12:00:00 21.3 11 Nordeste 28 Norte 0 -- -- 62
2019-08-15 11:00:00 19.3 9 Nordeste 24 Nordeste 0 -- -- 73
2019-08-15 10:00:00 17.6 11 Nordeste 25 Norte 0 -- -- 79
2019-08-15 09:00:00 17.9 10 Nordeste 22 Nordeste 0 -- -- 78
2019-08-15 08:00:00 18 2 Este 7 Oeste 0 -- -- 84
2019-08-15 07:00:00 17.4 0 Calma 7 Sudoeste 0 -- -- 86
2019-08-15 06:00:00 17.3 3 Noroeste 12 Sur 0 -- -- 85
2019-08-15 05:00:00 17.1 5 Noroeste 14 Norte 0 -- -- 85
2019-08-15 04:00:00 17.6 5 Sudoeste 17 Este 0 -- -- 82
2019-08-15 03:00:00 18.8 7 Nordeste 25 Nordeste 0 -- -- 78
2019-08-15 02:00:00 19.4 12 Nordeste 36 Nordeste 0 -- -- 73
2019-08-15 01:00:00 19.2 14 Nordeste 32 Nordeste 0 -- -- 74
2019-08-15 00:00:00 19.8 11 Nordeste 27 Norte 0 -- -- 69
2019-08-14 23:00:00 20.4 8 Nordeste 30 Nordeste 0 -- -- 65
2019-08-14 22:00:00 20.4 15 Nordeste 35 Nordeste 0 -- -- 62
2019-08-14 21:00:00 21.7 19 Nordeste 43 Este 0 -- -- 54
2019-08-14 20:00:00 23.9 18 Nordeste 42 Nordeste 0 -- -- 48
2019-08-14 19:00:00 26.1 17 Nordeste 35 Nordeste 0 -- -- 44
2019-08-14 18:00:00 27.7 16 Nordeste 30 Nordeste 0 -- -- 40
2019-08-14 17:00:00 30.2 9 Nordeste 24 Norte 0 -- -- 34
2019-08-14 16:00:00 29.4 8 Noroeste 24 Norte 0 -- -- 32
2019-08-14 15:00:00 28.8 10 Norte 27 Norte 0 -- -- 32
2019-08-14 14:00:00 27.3 8 Noroeste 20 Norte 0 -- -- 33
2019-08-14 13:00:00 25.4 6 Sudoeste 15 Sudoeste 0 -- -- 38
2019-08-14 12:00:00 22.3 5 Sudoeste 12 Sudoeste 0 -- -- 48
2019-08-14 11:00:00 19 3 Sur 8 Sur 0 -- -- 63
2019-08-14 10:00:00 16 3 Sur 6 Sur 0 -- -- 71
2019-08-14 09:00:00 12.7 3 Sur 5 Sur 0 -- -- 83
2019-08-14 08:00:00 11.3 2 Sur 4 Sur 0 -- -- 84
2019-08-14 07:00:00 11.9 0 Calma 7 Norte 0 -- -- 82
2019-08-14 06:00:00 11 2 Nordeste 9 Noroeste 0 -- -- 84
2019-08-14 05:00:00 11.2 0 Calma 7 Nordeste 0 -- -- 81
2019-08-14 04:00:00 11.5 0 Calma 5 Norte 0 -- -- 80
2019-08-14 03:00:00 12.4 2 Norte 5 Norte 0 -- -- 77
2019-08-14 02:00:00 13.2 0 Calma 8 Nordeste 0 -- -- 73
2019-08-14 01:00:00 13.8 3 Norte 6 Norte 0 -- -- 71
2019-08-14 00:00:00 14.4 3 Norte 8 Norte 0 -- -- 68
2019-08-13 23:00:00 15.1 3 Norte 10 Norte 0 -- -- 66
2019-08-13 22:00:00 17.1 4 Norte 16 Nordeste 0 -- -- 59
2019-08-13 21:00:00 18.2 7 Norte 23 Norte 0 -- -- 58
2019-08-13 20:00:00 20.7 6 Nordeste 26 Norte 0 -- -- 51
2019-08-13 19:00:00 21.5 15 Norte 28 Norte 0 -- -- 49
2019-08-13 18:00:00 22.6 6 Este 30 Nordeste 0 -- -- 45
2019-08-13 17:00:00 22.5 8 Noroeste 23 Norte 0 -- -- 44
2019-08-13 16:00:00 22.6 5 Sudoeste 16 Norte 0 -- -- 43
2019-08-13 15:00:00 21.9 7 Noroeste 20 Noroeste 0 -- -- 44
2019-08-13 14:00:00 21.2 10 Norte 18 Norte 0 -- -- 44
2019-08-13 13:00:00 18.8 6 Sudoeste 20 Norte 0 -- -- 51
2019-08-13 12:00:00 18.9 7 Este 35 Noroeste 0 -- -- 51
2019-08-13 11:00:00 17.6 4 Sudeste 24 Nordeste 0 -- -- 58
2019-08-13 10:00:00 16.2 8 Nordeste 20 Este 0 -- -- 65
2019-08-13 09:00:00 13.5 0 Calma 6 Oeste 0 -- -- 77
2019-08-13 08:00:00 10.8 0 Calma 5 Este 0 -- -- 87
2019-08-13 07:00:00 10.9 0 Calma 4 Este 0 -- -- 88
2019-08-13 06:00:00 11.3 2 Nordeste 5 Nordeste 0 -- -- 84
2019-08-13 05:00:00 11.3 2 Nordeste 5 Norte 0 -- -- 84
2019-08-13 04:00:00 11.3 2 Nordeste 8 Norte 0 -- -- 81
2019-08-13 03:00:00 12.1 4 Oeste 23 Norte 0 -- -- 80
2019-08-13 02:00:00 13.6 9 Nordeste 26 Norte 0 -- -- 72
2019-08-13 01:00:00 13.8 13 Nordeste 30 Norte 0 -- -- 70
2019-08-13 00:00:00 14.2 13 Nordeste 32 Norte 0 -- -- 65
2019-08-12 23:00:00 14.2 14 Nordeste 38 Nordeste 0 -- -- 69
2019-08-12 22:00:00 14.3 18 Nordeste 37 Nordeste 0 -- -- 72
2019-08-12 21:00:00 15 18 Norte 39 Norte 0 -- -- 67
2019-08-12 20:00:00 16 17 Norte 42 Norte 0 -- -- 61
2019-08-12 19:00:00 17.6 16 Norte 43 Noroeste 0 -- -- 56
2019-08-12 18:00:00 19.3 14 Norte 35 Norte 0 -- -- 55
2019-08-12 17:00:00 20.2 11 Noroeste 28 Norte 0 -- -- 48
2019-08-12 16:00:00 20.8 12 Norte 30 Nordeste 0 -- -- 44
2019-08-12 15:00:00 20.3 7 Nordeste 24 Nordeste 0 -- -- 46
2019-08-12 14:00:00 19.9 9 Nordeste 22 Nordeste 0 -- -- 48
2019-08-12 13:00:00 19.5 11 Norte 29 Norte 0 -- -- 49
2019-08-12 12:00:00 18 14 Norte 33 Nordeste 0 -- -- 53
2019-08-12 11:00:00 16.3 17 Norte 32 Norte 0 -- -- 60
2019-08-12 10:00:00 15.5 13 Norte 33 Nordeste 0 -- -- 63
2019-08-12 09:00:00 13.2 5 Sur 8 Sur 0 -- -- 78
2019-08-12 08:00:00 11.7 6 Sur 29 Noroeste 0 -- -- 80
2019-08-12 07:00:00 12.5 4 Sudoeste 13 Este 0 -- -- 75
2019-08-12 06:00:00 11 3 Este 9 Este 0 -- -- 83
2019-08-12 05:00:00 12.3 5 Sur 15 Norte 0 -- -- 77
2019-08-12 04:00:00 13.3 6 Noroeste 24 Norte 0 -- -- 72
2019-08-12 03:00:00 14.2 10 Nordeste 33 Nordeste 0 -- -- 71
2019-08-12 02:00:00 14.7 16 Nordeste 35 Nordeste 0 -- -- 72
2019-08-12 01:00:00 14.9 19 Nordeste 40 Norte 0 -- -- 75
2019-08-12 00:00:00 15.2 15 Nordeste 41 Norte 0 -- -- 74
2019-08-11 23:00:00 15.4 18 Nordeste 41 Nordeste 0 -- -- 75
2019-08-11 22:00:00 15.4 18 Norte 46 Norte 0.2 -- -- 77
2019-08-11 21:00:00 16.2 19 Nordeste 43 Nordeste 0 -- -- 75
2019-08-11 20:00:00 17.2 22 Nordeste 45 Norte 0 -- -- 74
2019-08-11 19:00:00 17.2 22 Norte 50 Norte 0.2 -- -- 76
2019-08-11 18:00:00 20.7 21 Nordeste 46 Nordeste 0 -- -- 61
2019-08-11 17:00:00 23.4 10 Nordeste 25 Norte 0 -- -- 51
2019-08-11 16:00:00 23.7 7 Nordeste 25 Norte 0 -- -- 54
2019-08-11 15:00:00 23.5 9 Nordeste 27 Nordeste 0 -- -- 52
2019-08-11 14:00:00 22.6 7 Nordeste 24 Norte 0 -- -- 59
2019-08-11 13:00:00 21.1 12 Nordeste 26 Norte 0 -- -- 62
2019-08-11 12:00:00 20 7 Nordeste 18 Este 0.2 -- -- 68
2019-08-11 11:00:00 18.2 5 Sur 10 Sur 0.2 -- -- 80
2019-08-11 10:00:00 16.4 2 Sur 8 Noroeste 0.2 -- -- 87
2019-08-11 09:00:00 14.6 3 Noroeste 9 Norte 0.4 -- -- 94
2019-08-11 08:00:00 14.3 0 Calma 19 Norte 1 -- -- 93
2019-08-11 07:00:00 14.3 6 Noroeste 24 Norte 0.8 -- -- 91
2019-08-11 06:00:00 15.3 15 Norte 31 Norte 0 -- -- 85
2019-08-11 05:00:00 15.3 5 Noroeste 14 Norte 0 -- -- 90
2019-08-11 04:00:00 15.3 2 Sudeste 21 Norte 0.2 -- -- 91
2019-08-11 03:00:00 15.5 6 Noroeste 22 Sur 0.2 -- -- 89
2019-08-11 02:00:00 15.9 4 Norte 16 Noroeste 0.2 -- -- 87
2019-08-11 01:00:00 16.6 8 Norte 23 Norte 0.8 -- -- 81
2019-08-11 00:00:00 17.6 9 Nordeste 30 Norte 0 -- -- 71
2019-08-10 23:00:00 18 15 Nordeste 35 Norte 0 -- -- 69
2019-08-10 22:00:00 18 17 Nordeste 45 Nordeste 0 -- -- 71
2019-08-10 21:00:00 18.6 21 Nordeste 44 Nordeste 0 -- -- 70
2019-08-10 20:00:00 21 19 Nordeste 40 Norte 0 -- -- 63
2019-08-10 19:00:00 23 17 Nordeste 35 Nordeste 0 -- -- 57
2019-08-10 18:00:00 24.9 14 Nordeste 32 Nordeste 0 -- -- 52
2019-08-10 17:00:00 25.1 12 Nordeste 33 Este 0 -- -- 50
2019-08-10 16:00:00 25.8 12 Nordeste 23 Norte 0 -- -- 47
2019-08-10 15:00:00 26.2 10 Este 22 Este 0 -- -- 47
2019-08-10 14:00:00 24.8 8 Noroeste 17 Norte 0 -- -- 50
2019-08-10 13:00:00 23.9 6 Sudeste 11 Sur 0 -- -- 54
2019-08-10 12:00:00 22.6 4 Sudeste 12 Sudoeste 0 -- -- 63
2019-08-10 11:00:00 20.6 3 Sur 10 Sur 0 -- -- 72
2019-08-10 10:00:00 18.2 3 Sur 7 Sur 0 -- -- 79
2019-08-10 09:00:00 15.7 0 Calma 6 Oeste 0 -- -- 87
2019-08-10 08:00:00 15.2 2 Sudeste 6 Sur 0.2 -- -- 86
2019-08-10 07:00:00 14.5 0 Calma 9 Oeste 0 -- -- 84
2019-08-10 06:00:00 16.3 4 Norte 10 Norte 0 -- -- 76
2019-08-10 05:00:00 16.6 4 Norte 14 Norte 0 -- -- 75
2019-08-10 04:00:00 17.7 5 Norte 16 Norte 0 -- -- 71
2019-08-10 03:00:00 17.8 5 Norte 18 Norte 0 -- -- 70
2019-08-10 02:00:00 17.6 4 Norte 9 Norte 0 -- -- 70
2019-08-10 01:00:00 18.7 6 Norte 13 Norte 0 -- -- 64
2019-08-10 00:00:00 18.5 5 Norte 12 Norte 0 -- -- 66
2019-08-09 23:00:00 17.5 5 Norte 11 Norte 0 -- -- 78
2019-08-09 22:00:00 18.4 5 Nordeste 15 Norte 0.2 -- -- 78
2019-08-09 21:00:00 17.7 7 Norte 24 Oeste 1.2 -- -- 77
2019-08-09 20:00:00 24.3 3 Norte 32 Sur 0 -- -- 50
2019-08-09 19:00:00 27.3 11 Sur 31 Oeste 0 -- -- 42
2019-08-09 18:00:00 28.7 8 Noroeste 32 Norte 0 -- -- 48
2019-08-09 17:00:00 28.1 10 Noroeste 30 Norte 0 -- -- 51
2019-08-09 16:00:00 27.5 8 Norte 27 Norte 0 -- -- 53
2019-08-09 15:00:00 26.2 9 Noroeste 28 Oeste 0 -- -- 58
2019-08-09 14:00:00 26.9 10 Noroeste 30 Oeste 0 -- -- 57
2019-08-09 13:00:00 26.7 9 Noroeste 26 Norte 0 -- -- 55
2019-08-09 12:00:00 27.1 8 Sudoeste 24 Sur 0 -- -- 53
2019-08-09 11:00:00 28.1 7 Sur 15 Noroeste 0 -- -- 48
2019-08-09 10:00:00 25.8 4 Oeste 13 Norte 0 -- -- 52
2019-08-09 09:00:00 25.1 5 Norte 12 Norte 0 -- -- 54
2019-08-09 08:00:00 22.8 5 Norte 13 Norte 0 -- -- 59
2019-08-09 07:00:00 23 6 Norte 18 Norte 0 -- -- 59
2019-08-09 06:00:00 23.1 5 Norte 21 Noroeste 0 -- -- 58
2019-08-09 05:00:00 24 8 Norte 21 Noroeste 0 -- -- 55
2019-08-09 04:00:00 23.2 5 Norte 13 Norte 0 -- -- 57
2019-08-09 03:00:00 24.4 4 Noroeste 15 Noroeste 0 -- -- 53
2019-08-09 02:00:00 25.2 8 Norte 16 Norte 0 -- -- 50
2019-08-09 01:00:00 26.4 7 Norte 18 Norte 0 -- -- 47
2019-08-09 00:00:00 25.9 3 Norte 19 Oeste 0 -- -- 49
2019-08-08 23:00:00 27 6 Norte 11 Norte 0 -- -- 47
2019-08-08 22:00:00 26.2 3 Nordeste 8 Nordeste 0 -- -- 52
2019-08-08 21:00:00 27.8 3 Nordeste 10 Sudoeste 0 -- -- 50
2019-08-08 20:00:00 32 5 Sur 12 Sur 0 -- -- 39
2019-08-08 19:00:00 31.1 5 Sudoeste 19 Sudoeste 0 -- -- 42
2019-08-08 18:00:00 30.3 5 Noroeste 23 Oeste 0 -- -- 44
2019-08-08 17:00:00 30.8 6 Noroeste 23 Noroeste 0 -- -- 43
2019-08-08 16:00:00 30.1 7 Oeste 25 Noroeste 0 -- -- 46
2019-08-08 15:00:00 28.4 9 Noroeste 26 Oeste 0 -- -- 50
2019-08-08 14:00:00 28.2 9 Norte 26 Sudeste 0 -- -- 48
2019-08-08 13:00:00 28.3 10 Sur 21 Sur 0 -- -- 48
2019-08-08 12:00:00 26.4 6 Sudoeste 15 Oeste 0 -- -- 53
2019-08-08 11:00:00 24 4 Sur 13 Oeste 0 -- -- 58
2019-08-08 10:00:00 22.6 3 Noroeste 13 Oeste 0 -- -- 62
2019-08-08 09:00:00 21.3 5 Norte 14 Noroeste 0 -- -- 66
2019-08-08 08:00:00 20.1 5 Noroeste 17 Noroeste 0 -- -- 68
2019-08-08 07:00:00 20.8 8 Norte 21 Noroeste 0 -- -- 64
2019-08-08 06:00:00 20.8 6 Noroeste 22 Noroeste 0.2 -- -- 64
2019-08-08 05:00:00 20.4 9 Norte 19 Nordeste 0 -- -- 63
2019-08-08 04:00:00 19.6 6 Norte 16 Norte 0 -- -- 70
2019-08-08 03:00:00 19.4 7 Norte 16 Norte 0 -- -- 74
2019-08-08 02:00:00 19.5 5 Norte 14 Norte 0 -- -- 75
2019-08-08 01:00:00 19.6 5 Norte 14 Noroeste 0 -- -- 75
2019-08-08 00:00:00 19.1 6 Norte 17 Norte 0.4 -- -- 78
2019-08-07 23:00:00 22.8 8 Norte 18 Noroeste 0 -- -- 55
2019-08-07 22:00:00 23.9 3 Norte 23 Nordeste 0 -- -- 48
2019-08-07 21:00:00 24 8 Norte 18 Norte 0 -- -- 47
2019-08-07 20:00:00 25.8 5 Norte 27 Sudoeste 0 -- -- 43
2019-08-07 19:00:00 27.2 6 Sur 14 Sur 0 -- -- 37
2019-08-07 18:00:00 27 3 Sudoeste 12 Sur 0 -- -- 44
2019-08-07 17:00:00 27.1 6 Sur 15 Noroeste 0 -- -- 45
2019-08-07 16:00:00 28.3 6 Noroeste 17 Oeste 0 -- -- 42
2019-08-07 15:00:00 29.1 6 Noroeste 14 Noroeste 0 -- -- 41
2019-08-07 14:00:00 26.9 5 Sudoeste 16 Oeste 0 -- -- 47
2019-08-07 13:00:00 26 9 Sudeste 22 Nordeste 0 -- -- 50
2019-08-07 12:00:00 24.2 9 Sudeste 18 Este 0 -- -- 51
2019-08-07 11:00:00 21.9 2 Sudeste 10 Sur 0 -- -- 69
2019-08-07 10:00:00 20.7 3 Sur 7 Sur 0 -- -- 73
2019-08-07 09:00:00 17.8 3 Sudoeste 8 Oeste 0 -- -- 88
2019-08-07 08:00:00 17.2 0 Calma 5 Noroeste 0 -- -- 89
2019-08-07 07:00:00 17 2 Nordeste 6 Este 0 -- -- 89
2019-08-07 06:00:00 17 2 Noroeste 9 Noroeste 0 -- -- 90
2019-08-07 05:00:00 16.4 3 Norte 9 Norte 0 -- -- 91
2019-08-07 04:00:00 16.5 0 Calma 6 Sur 0 -- -- 92
2019-08-07 03:00:00 16.7 4 Sur 7 Sur 0 -- -- 92
2019-08-07 02:00:00 17.1 2 Este 15 Oeste 0.4 -- -- 88
2019-08-07 01:00:00 18.1 10 Sudeste 42 Nordeste 0.4 -- -- 77
2019-08-07 00:00:00 19.3 14 Nordeste 48 Nordeste 0 -- -- 67
2019-08-06 23:00:00 20 22 Nordeste 52 Este 0 -- -- 60
2019-08-06 22:00:00 20.4 22 Nordeste 59 Norte 0 -- -- 64
2019-08-06 21:00:00 22.5 19 Nordeste 38 Nordeste 0 -- -- 65
2019-08-06 20:00:00 24.8 15 Nordeste 35 Nordeste 0 -- -- 59
2019-08-06 19:00:00 27.6 11 Nordeste 31 Norte 0 -- -- 53
2019-08-06 18:00:00 29.9 10 Nordeste 22 Nordeste 0 -- -- 45
2019-08-06 17:00:00 30.1 5 Oeste 11 Sur 0 -- -- 43
2019-08-06 16:00:00 29.3 5 Oeste 10 Sudoeste 0 -- -- 46
2019-08-06 15:00:00 28.9 4 Este 12 Sur 0 -- -- 48
2019-08-06 14:00:00 26.7 8 Sur 13 Sur 0 -- -- 50
2019-08-06 13:00:00 24.3 5 Oeste 15 Sur 0 -- -- 57
2019-08-06 12:00:00 22.6 4 Sudoeste 11 Este 0 -- -- 64
2019-08-06 11:00:00 21.1 4 Sur 12 Sudoeste 0 -- -- 68
2019-08-06 10:00:00 19.6 2 Sur 9 Sur 0 -- -- 72
2019-08-06 09:00:00 17.5 5 Sur 7 Sur 0 -- -- 82
2019-08-06 08:00:00 14.9 0 Calma 7 Oeste 0 -- -- 88
2019-08-06 07:00:00 14.6 2 Nordeste 8 Este 0 -- -- 84
2019-08-06 06:00:00 15.3 3 Nordeste 5 Nordeste 0 -- -- 82
2019-08-06 05:00:00 15.6 2 Nordeste 7 Norte 0 -- -- 80
2019-08-06 04:00:00 15.9 2 Norte 5 Nordeste 0 -- -- 81
2019-08-06 03:00:00 16.6 3 Nordeste 6 Nordeste 0 -- -- 80
2019-08-06 02:00:00 18.2 4 Noroeste 11 Noroeste 0 -- -- 76
2019-08-06 01:00:00 18.8 4 Oeste 14 Este 0 -- -- 74
2019-08-06 00:00:00 20.1 6 Sur 23 Este 0 -- -- 69
2019-08-05 23:00:00 21.4 5 Noroeste 18 Norte 0 -- -- 66
2019-08-05 22:00:00 22.3 8 Oeste 33 Nordeste 0 -- -- 61
2019-08-05 21:00:00 23.1 16 Nordeste 34 Norte 0 -- -- 63
2019-08-05 20:00:00 25.8 13 Nordeste 30 Nordeste 0 -- -- 58
2019-08-05 19:00:00 28.1 12 Nordeste 26 Nordeste 0 -- -- 50
2019-08-05 18:00:00 30.2 9 Nordeste 21 Nordeste 0 -- -- 46
2019-08-05 17:00:00 30.6 9 Nordeste 26 Sur 0 -- -- 45
2019-08-05 16:00:00 30.1 11 Sur 27 Sur 0 -- -- 47
2019-08-05 15:00:00 28.3 7 Sur 21 Sur 0 -- -- 51
2019-08-05 14:00:00 26.9 6 Sudeste 22 Sur 0 -- -- 55
2019-08-05 13:00:00 24.8 5 Sur 15 Sur 0 -- -- 59
2019-08-05 12:00:00 24.1 5 Sudeste 15 Sur 0 -- -- 61
2019-08-05 11:00:00 21.7 4 Sur 12 Sudoeste 0 -- -- 67
2019-08-05 10:00:00 20.1 2 Sudeste 5 Sudeste 0 -- -- 73
2019-08-05 09:00:00 16.7 3 Sur 5 Sur 0 -- -- 87
2019-08-05 08:00:00 15 0 Calma 4 Norte 0 -- -- 91
2019-08-05 07:00:00 14.4 2 Nordeste 5 Nordeste 0 -- -- 91
2019-08-05 06:00:00 14.7 2 Nordeste 4 Norte 0 -- -- 91
2019-08-05 05:00:00 15 2 Nordeste 6 Este 0 -- -- 90
2019-08-05 04:00:00 15.5 0 Calma 5 Norte 0 -- -- 89
2019-08-05 03:00:00 16 2 Norte 8 Norte 0 -- -- 88
2019-08-05 02:00:00 16.9 3 Noroeste 5 Norte 0 -- -- 87
2019-08-05 01:00:00 17.3 3 Norte 15 Norte 0 -- -- 86
2019-08-05 00:00:00 18.6 6 Este 25 Norte 0 -- -- 81
2019-08-04 23:00:00 19.2 10 Nordeste 28 Norte 0 -- -- 78
2019-08-04 22:00:00 20.5 13 Nordeste 38 Norte 0 -- -- 72
2019-08-04 21:00:00 21.5 13 Nordeste 35 Nordeste 0 -- -- 68
2019-08-04 20:00:00 27.1 4 Norte 18 Nordeste 0 -- -- 50
2019-08-04 19:00:00 29 4 Norte 29 Nordeste 0 -- -- 48
2019-08-04 18:00:00 28.8 11 Nordeste 28 Nordeste 0 -- -- 49
2019-08-04 17:00:00 30.2 10 Nordeste 27 Norte 0 -- -- 48
2019-08-04 16:00:00 30.4 8 Nordeste 24 Sur 0 -- -- 46
2019-08-04 15:00:00 27.9 12 Sur 18 Sur 0 -- -- 55
2019-08-04 14:00:00 25.7 9 Sur 19 Sur 0 -- -- 60
2019-08-04 13:00:00 23.8 6 Oeste 19 Sudoeste 0 -- -- 65
2019-08-04 12:00:00 22.3 9 Sur 17 Sudoeste 0 -- -- 69
2019-08-04 11:00:00 20.8 5 Oeste 17 Sudoeste 0 -- -- 74
2019-08-04 10:00:00 19.8 3 Sudeste 6 Sur 0 -- -- 80
2019-08-04 09:00:00 18.4 0 Calma 5 Sudoeste 0 -- -- 86
2019-08-04 08:00:00 16.5 0 Calma 4 Nordeste 0 -- -- 91
2019-08-04 07:00:00 16.5 5 Norte 8 Noroeste 0 -- -- 91
2019-08-04 06:00:00 16.2 2 Nordeste 5 Norte 0 -- -- 90
2019-08-04 05:00:00 17.1 4 Norte 7 Noroeste 0 -- -- 88
2019-08-04 04:00:00 17.1 3 Norte 6 Nordeste 0 -- -- 86
2019-08-04 03:00:00 17.7 2 Nordeste 5 Norte 0 -- -- 83
2019-08-04 02:00:00 18.4 2 Norte 5 Nordeste 0 -- -- 81
2019-08-04 01:00:00 19.8 2 Nordeste 10 Oeste 0 -- -- 77
2019-08-04 00:00:00 23.9 3 Norte 22 Nordeste 0 -- -- 56
2019-08-03 23:00:00 23 8 Noroeste 29 Nordeste 0 -- -- 69
2019-08-03 22:00:00 24.3 13 Nordeste 27 Nordeste 0 -- -- 64
2019-08-03 21:00:00 25.9 15 Nordeste 32 Nordeste 0 -- -- 59
2019-08-03 20:00:00 28.3 13 Nordeste 30 Nordeste 0 -- -- 53
2019-08-03 19:00:00 30.5 11 Nordeste 26 Norte 0 -- -- 47
2019-08-03 18:00:00 32.4 4 Sur 13 Sur 0 -- -- 33
2019-08-03 17:00:00 32.2 7 Sur 17 Sudoeste 0 -- -- 33
2019-08-03 16:00:00 32 4 Sudeste 15 Sur 0 -- -- 33
2019-08-03 15:00:00 30 7 Sur 14 Sur 0 -- -- 37
2019-08-03 14:00:00 27.2 6 Sudoeste 13 Sur 0 -- -- 50
2019-08-03 13:00:00 24.5 4 Sudoeste 10 Sudoeste 0 -- -- 62
2019-08-03 12:00:00 22.6 3 Sur 10 Sur 0 -- -- 68
2019-08-03 11:00:00 20 5 Sur 10 Sur 0 -- -- 76
2019-08-03 10:00:00 18.4 3 Sur 7 Sur 0 -- -- 80
2019-08-03 09:00:00 16.2 3 Sur 4 Sur 0 -- -- 88
2019-08-03 08:00:00 13.9 0 Calma 4 Este 0 -- -- 90
2019-08-03 07:00:00 14 3 Este 6 Este 0 -- -- 88
2019-08-03 06:00:00 13.9 0 Calma 4 Norte 0 -- -- 87
2019-08-03 05:00:00 15 0 Calma 4 Norte 0 -- -- 84
2019-08-03 04:00:00 15.3 2 Nordeste 4 Nordeste 0 -- -- 85
2019-08-03 03:00:00 16 2 Nordeste 6 Nordeste 0 -- -- 80
2019-08-03 02:00:00 16.3 0 Calma 6 Nordeste 0 -- -- 75
2019-08-03 01:00:00 17.2 3 Nordeste 8 Norte 0 -- -- 66
2019-08-03 00:00:00 18.2 3 Norte 6 Norte 0 -- -- 58
2019-08-02 23:00:00 19.7 4 Nordeste 14 Nordeste 0 -- -- 52
2019-08-02 22:00:00 21.8 5 Norte 23 Noroeste 0 -- -- 53
2019-08-02 21:00:00 23.1 8 Nordeste 27 Nordeste 0 -- -- 60
2019-08-02 20:00:00 26 10 Nordeste 26 Norte 0 -- -- 49
2019-08-02 19:00:00 27.3 12 Nordeste 26 Norte 0 -- -- 46
2019-08-02 18:00:00 28.3 9 Nordeste 27 Norte 0 -- -- 44
2019-08-02 17:00:00 28.9 8 Nordeste 23 Este 0 -- -- 43
2019-08-02 16:00:00 27.6 8 Sur 19 Sur 0 -- -- 48
2019-08-02 15:00:00 26.7 8 Sudeste 18 Sudoeste 0 -- -- 50
2019-08-02 14:00:00 24.7 8 Sur 15 Sudoeste 0 -- -- 56
2019-08-02 13:00:00 22.8 6 Sur 15 Sudoeste 0 -- -- 63
2019-08-02 12:00:00 21.2 4 Sur 19 Sur 0 -- -- 65
2019-08-02 11:00:00 18.9 4 Sudoeste 10 Sur 0 -- -- 71
2019-08-02 10:00:00 17.9 3 Sudoeste 10 Oeste 0 -- -- 76
2019-08-02 09:00:00 17.9 3 Norte 5 Nordeste 0 -- -- 79
2019-08-02 08:00:00 15.5 2 Nordeste 8 Norte 0 -- -- 89
2019-08-02 07:00:00 15.9 2 Oeste 6 Norte 0 -- -- 90
2019-08-02 06:00:00 14.8 3 Norte 8 Norte 0 -- -- 93
2019-08-02 05:00:00 14.7 3 Nordeste 10 Nordeste 0 -- -- 93
2019-08-02 04:00:00 15.3 3 Noroeste 8 Oeste 0 -- -- 91
2019-08-02 03:00:00 15.5 3 Oeste 9 Norte 0 -- -- 91
2019-08-02 02:00:00 16 4 Noroeste 15 Sudeste 0 -- -- 87
2019-08-02 01:00:00 16.5 6 Nordeste 20 Norte 0 -- -- 85
2019-08-02 00:00:00 17 5 Sur 18 Norte 0 -- -- 84
2019-08-01 23:00:00 17.5 6 Sur 30 Norte 0 -- -- 82
2019-08-01 22:00:00 17.8 9 Noroeste 37 Nordeste 0 -- -- 81
2019-08-01 21:00:00 17.8 18 Nordeste 41 Nordeste 0 -- -- 81
2019-08-01 20:00:00 19.4 17 Nordeste 41 Este 0 -- -- 77
2019-08-01 19:00:00 20.7 15 Nordeste 33 Nordeste 0 -- -- 75
2019-08-01 18:00:00 23.1 14 Nordeste 37 Norte 0 -- -- 69
2019-08-01 17:00:00 25.7 9 Norte 31 Norte 0 -- -- 63
2019-08-01 16:00:00 24.6 8 Norte 21 Oeste 0 -- -- 67
2019-08-01 15:00:00 23.9 6 Noroeste 21 Sur 0 -- -- 69
2019-08-01 14:00:00 23.6 12 Sur 23 Sur 0 -- -- 66
2019-08-01 13:00:00 22.1 8 Sur 25 Sur 0 -- -- 74
2019-08-01 12:00:00 19.3 7 Sur 18 Sudoeste 0 -- -- 84
2019-08-01 11:00:00 17.9 5 Sudoeste 19 Sudeste 0 -- -- 86
2019-08-01 10:00:00 17.6 5 Sudeste 13 Sudeste 0 -- -- 88
2019-08-01 09:00:00 15.1 3 Noroeste 9 Sudoeste 1.2 -- -- 95
2019-08-01 08:00:00 15 5 Oeste 35 Este 10.8 -- -- 95
2019-08-01 07:00:00 15.8 12 Sudeste 35 Sur 13.2 -- -- 95
2019-08-01 06:00:00 16.3 6 Nordeste 28 Norte 13.2 -- -- 91
2019-08-01 05:00:00 15.9 9 Norte 25 Noroeste 0 -- -- 84
2019-08-01 04:00:00 15.6 3 Norte 4 Norte 0 -- -- 81
2019-08-01 03:00:00 15.8 0 Calma 4 Nordeste 0 -- -- 79
2019-08-01 02:00:00 16 0 Calma 9 Noroeste 0 -- -- 76
2019-08-01 01:00:00 16.8 2 Noroeste 9 Noroeste 0 -- -- 73
2019-08-01 00:00:00 17.4 0 Calma 8 Oeste 0 -- -- 67
2019-07-31 23:00:00 19.4 5 Noroeste 16 Norte 0 -- -- 61
2019-07-31 22:00:00 21 5 Este 21 Este 0 -- -- 53
2019-07-31 21:00:00 21.3 11 Nordeste 27 Norte 0 -- -- 54
2019-07-31 20:00:00 22.9 7 Nordeste 21 Nordeste 0 -- -- 51
2019-07-31 19:00:00 25.3 7 Este 22 Este 0 -- -- 41
2019-07-31 18:00:00 26.1 5 Este 19 Este 0 -- -- 40
2019-07-31 17:00:00 25.5 5 Oeste 19 Sur 0 -- -- 41
2019-07-31 16:00:00 23.9 6 Sudoeste 18 Sur 0 -- -- 41
2019-07-31 15:00:00 24 9 Sur 31 Sudeste 0 -- -- 42
2019-07-31 14:00:00 23.2 6 Sudeste 19 Este 0 -- -- 43
2019-07-31 13:00:00 21.2 9 Sur 18 Sur 0 -- -- 51
2019-07-31 12:00:00 19.5 7 Sudoeste 18 Sudeste 0 -- -- 55
2019-07-31 11:00:00 17.1 5 Oeste 11 Oeste 0 -- -- 61
2019-07-31 10:00:00 14.7 4 Sur 9 Sur 0 -- -- 70
2019-07-31 09:00:00 12.7 0 Calma 10 Este 0 -- -- 77
2019-07-31 08:00:00 10.8 4 Norte 8 Norte 0 -- -- 81
2019-07-31 07:00:00 9.4 4 Norte 6 Norte 0 -- -- 85
2019-07-31 06:00:00 10.7 3 Noroeste 8 Sudoeste 0 -- -- 79
2019-07-31 05:00:00 10.4 3 Nordeste 7 Norte 0 -- -- 81
2019-07-31 04:00:00 10.9 3 Nordeste 9 Noroeste 0 -- -- 79
2019-07-31 03:00:00 11.9 4 Noroeste 10 Oeste 0 -- -- 75
2019-07-31 02:00:00 13.3 6 Oeste 24 Nordeste 0 -- -- 71
2019-07-31 01:00:00 14.1 12 Nordeste 36 Norte 0 -- -- 66
2019-07-31 00:00:00 14.1 14 Nordeste 35 Norte 0 -- -- 67
2019-07-30 23:00:00 14.6 16 Nordeste 41 Norte 0 -- -- 66
2019-07-30 22:00:00 14.9 18 Nordeste 44 Nordeste 0 -- -- 68
2019-07-30 21:00:00 16 19 Nordeste 44 Norte 0 -- -- 65
2019-07-30 20:00:00 17.9 18 Nordeste 40 Norte 0 -- -- 58
2019-07-30 19:00:00 19.7 19 Nordeste 37 Norte 0 -- -- 50
2019-07-30 18:00:00 21.8 12 Nordeste 35 Norte 0 -- -- 46
2019-07-30 17:00:00 22.2 9 Norte 27 Norte 0 -- -- 41
2019-07-30 16:00:00 22.8 6 Noroeste 31 Norte 0 -- -- 40
2019-07-30 15:00:00 22.4 10 Noroeste 28 Noroeste 0 -- -- 41
2019-07-30 14:00:00 22.1 7 Nordeste 19 Norte 0 -- -- 42
2019-07-30 13:00:00 20 9 Noroeste 26 Noroeste 0 -- -- 47
2019-07-30 12:00:00 18.9 10 Norte 27 Noroeste 0 -- -- 49
2019-07-30 11:00:00 17.6 10 Nordeste 27 Norte 0 -- -- 52
2019-07-30 10:00:00 15.8 11 Nordeste 29 Norte 0 -- -- 62
2019-07-30 09:00:00 15.8 9 Sudeste 30 Nordeste 0 -- -- 64
2019-07-30 08:00:00 14.4 16 Nordeste 36 Nordeste 0 -- -- 70
2019-07-30 07:00:00 14.5 16 Nordeste 36 Norte 0 -- -- 71
2019-07-30 06:00:00 14.6 15 Nordeste 33 Norte 0 -- -- 76
2019-07-30 05:00:00 14.8 14 Nordeste 37 Norte 0 -- -- 75
2019-07-30 04:00:00 15.1 12 Nordeste 32 Norte 0 -- -- 74
2019-07-30 03:00:00 15.1 15 Nordeste 42 Norte 0 -- -- 75
2019-07-30 02:00:00 14.9 17 Nordeste 36 Norte 0 -- -- 78
2019-07-30 01:00:00 15.5 9 Nordeste 33 Norte 0 -- -- 81
2019-07-30 00:00:00 16.1 18 Nordeste 43 Norte 0 -- -- 77
2019-07-29 23:00:00 15.9 18 Nordeste 47 Norte 0 -- -- 78
2019-07-29 22:00:00 16.4 22 Nordeste 54 Nordeste 0 -- -- 73
2019-07-29 21:00:00 16.6 26 Nordeste 57 Nordeste 0 -- -- 73
2019-07-29 20:00:00 18.7 28 Nordeste 59 Norte 0 -- -- 69
2019-07-29 19:00:00 24.6 14 Nordeste 39 Nordeste 0 -- -- 51
2019-07-29 18:00:00 25.8 15 Nordeste 35 Nordeste 0 -- -- 51
2019-07-29 17:00:00 27.4 18 Nordeste 35 Nordeste 0 -- -- 44
2019-07-29 16:00:00 30.5 9 Sudoeste 20 Oeste 0 -- -- 27
2019-07-29 15:00:00 29.8 8 Sur 18 Sudoeste 0 -- -- 27
2019-07-29 14:00:00 28.6 8 Sudoeste 18 Sudoeste 0 -- -- 28
2019-07-29 13:00:00 25.8 6 Sudoeste 16 Sur 0 -- -- 37
2019-07-29 12:00:00 24 6 Sudeste 13 Sudoeste 0 -- -- 46
2019-07-29 11:00:00 21.1 3 Sudeste 10 Sur 0 -- -- 55
2019-07-29 10:00:00 18.3 4 Sur 8 Sur 0 -- -- 63
2019-07-29 09:00:00 15.8 0 Calma 12 Oeste 0 -- -- 72
2019-07-29 08:00:00 12.9 2 Nordeste 8 Nordeste 0 -- -- 81
2019-07-29 07:00:00 12.3 2 Nordeste 12 Oeste 0 -- -- 81
2019-07-29 06:00:00 12.6 4 Noroeste 10 Oeste 0 -- -- 82
2019-07-29 05:00:00 12.7 2 Norte 7 Norte 0 -- -- 81
2019-07-29 04:00:00 13.2 3 Noroeste 5 Oeste 0 -- -- 78
2019-07-29 03:00:00 14.1 4 Norte 7 Norte 0 -- -- 75
2019-07-29 02:00:00 14.7 2 Nordeste 5 Nordeste 0 -- -- 72
2019-07-29 01:00:00 15.6 3 Norte 8 Noroeste 0 -- -- 69
2019-07-29 00:00:00 16.4 2 Nordeste 8 Sudeste 0 -- -- 64
2019-07-28 23:00:00 19 5 Sudeste 11 Este 0 -- -- 54
2019-07-28 22:00:00 19.6 3 Nordeste 16 Este 0 -- -- 51
2019-07-28 21:00:00 22.1 4 Nordeste 17 Este 0 -- -- 48
2019-07-28 20:00:00 24.7 5 Oeste 13 Norte 0 -- -- 39
2019-07-28 19:00:00 25.4 5 Noroeste 17 Oeste 0 -- -- 35
2019-07-28 18:00:00 25 7 Oeste 20 Sudoeste 0 -- -- 36
2019-07-28 17:00:00 24.7 5 Sur 30 Sudoeste 0 -- -- 38
2019-07-28 16:00:00 23.9 6 Norte 18 Sur 0 -- -- 41
2019-07-28 15:00:00 22.8 4 Norte 18 Sudoeste 0 -- -- 44
2019-07-28 14:00:00 21.3 6 Sudeste 19 Sur 0 -- -- 48
2019-07-28 13:00:00 20.3 8 Sudoeste 18 Sudoeste 0 -- -- 54
2019-07-28 12:00:00 18.6 5 Oeste 17 Norte 0 -- -- 60
2019-07-28 11:00:00 16.9 4 Oeste 13 Sudoeste 0 -- -- 69
2019-07-28 10:00:00 14.7 6 Sudoeste 13 Oeste 0 -- -- 79
2019-07-28 09:00:00 13.9 3 Norte 9 Norte 0 -- -- 82
2019-07-28 08:00:00 13.1 0 Calma 5 Noroeste 0 -- -- 84
2019-07-28 07:00:00 11.7 4 Norte 8 Norte 0 -- -- 90
2019-07-28 06:00:00 12.4 2 Norte 6 Noroeste 0 -- -- 84
2019-07-28 05:00:00 12.5 0 Calma 10 Oeste 0 -- -- 84
2019-07-28 04:00:00 12.8 3 Noroeste 10 Norte 0 -- -- 81
2019-07-28 03:00:00 12.7 5 Norte 8 Norte 0 -- -- 83
2019-07-28 02:00:00 13.3 3 Noroeste 18 Nordeste 0 -- -- 80
2019-07-28 01:00:00 13.5 5 Norte 22 Norte 0 -- -- 82
2019-07-28 00:00:00 13.7 6 Norte 22 Noroeste 0 -- -- 85
2019-07-27 23:00:00 14.4 7 Norte 26 Oeste 0 -- -- 78
2019-07-26 12:00:00 -- -- -- -- -- -- -- -- --
2019-07-26 11:00:00 19.5 15 Norte 28 Norte 0 -- -- 80
2019-07-26 10:00:00 19.8 5 Oeste 12 Sudoeste 0 -- -- 84
2019-07-26 09:00:00 19.5 8 Sudoeste 39 Norte 0 -- -- 82
2019-07-26 08:00:00 18.4 18 Nordeste 36 Nordeste 0.2 -- -- 86
2019-07-26 07:00:00 18.5 5 Oeste 27 Nordeste 0 -- -- 87
2019-07-26 06:00:00 18.6 11 Nordeste 33 Norte 0.2 -- -- 85
2019-07-26 05:00:00 18 5 Noroeste 26 Norte 0.4 -- -- 91
2019-07-26 04:00:00 18.4 8 Nordeste 46 Nordeste 0.8 -- -- 88
2019-07-26 03:00:00 18.6 15 Norte 34 Norte 0.4 -- -- 86
2019-07-26 02:00:00 19.4 12 Nordeste 31 Norte 0 -- -- 83
2019-07-26 01:00:00 20.1 13 Nordeste 34 Norte 0 -- -- 81
2019-07-26 00:00:00 20.4 15 Nordeste 38 Norte 0 -- -- 80